Time;durP1;ratioP1;P1;durP2;ratioP2;P2;SDS_P1;SDS_P2;PMS_P1;PMS_P2;Temp;Humidity;BMP_temperature;BMP_pressure;BME280_temperature;BME280_humidity;BME280_pressure;Samples;Min_cycle;Max_cycle;Signal;HPM_P1;HPM_P2
2022/08/10 00:00:22;;;;;;;2.25;1.52;;;28.60;52.70;;;;;;5051428;28;20059;-75
2022/08/10 00:02:49;;;;;;;1.83;1.73;;;28.80;52.80;;;;;;5051439;28;20041;-75
2022/08/10 00:05:16;;;;;;;2.65;1.45;;;28.80;52.80;;;;;;5051376;28;20355;-75
2022/08/10 00:07:42;;;;;;;1.60;1.48;;;28.80;52.90;;;;;;5050445;28;20432;-75
2022/08/10 00:10:10;;;;;;;2.10;1.90;;;28.90;52.90;;;;;;5051099;28;20638;-75
2022/08/10 00:12:36;;;;;;;3.05;1.52;;;28.90;53.00;;;;;;5051552;28;20082;-75
2022/08/10 00:15:03;;;;;;;1.88;1.60;;;28.80;53.00;;;;;;5050455;28;20437;-75
2022/08/10 00:17:29;;;;;;;2.85;1.77;;;28.90;53.10;;;;;;5051471;28;20032;-75
2022/08/10 00:19:56;;;;;;;3.60;1.52;;;28.90;53.00;;;;;;5049852;28;20370;-75
2022/08/10 00:22:22;;;;;;;1.95;1.33;;;28.90;53.10;;;;;;5051240;28;20086;-75
2022/08/10 00:24:48;;;;;;;2.20;1.60;;;28.90;53.20;;;;;;5051139;28;20112;-75
2022/08/10 00:27:14;;;;;;;2.33;1.48;;;28.80;53.20;;;;;;5050674;28;20043;-75
2022/08/10 00:29:40;;;;;;;1.60;1.27;;;28.90;53.20;;;;;;5061207;28;20048;-74
2022/08/10 00:32:06;;;;;;;1.85;1.42;;;28.80;53.30;;;;;;5050945;28;20037;-75
2022/08/10 00:34:33;;;;;;;1.80;1.55;;;28.90;53.30;;;;;;5053806;28;20045;-75
2022/08/10 00:37:00;;;;;;;1.35;1.25;;;28.90;53.30;;;;;;5054746;28;20040;-75
2022/08/10 00:39:27;;;;;;;1.65;1.55;;;29.00;53.70;;;;;;5053288;28;20363;-75
2022/08/10 00:41:54;;;;;;;2.72;1.55;;;28.90;53.30;;;;;;5054746;28;20442;-75
2022/08/10 00:44:20;;;;;;;1.55;1.40;;;28.90;53.50;;;;;;5054866;28;20113;-75
2022/08/10 00:46:46;;;;;;;1.30;1.20;;;29.00;54.00;;;;;;5054639;28;20124;-75
2022/08/10 00:49:13;;;;;;;2.78;1.23;;;28.90;53.50;;;;;;5054887;28;20057;-75
2022/08/10 00:51:40;;;;;;;1.40;1.20;;;29.00;54.00;;;;;;5054403;28;20107;-75
2022/08/10 00:54:07;;;;;;;1.50;1.40;;;29.00;53.70;;;;;;5054600;28;20393;-75
2022/08/10 00:56:33;;;;;;;2.05;1.45;;;29.10;54.00;;;;;;5054505;28;20119;-75
2022/08/10 00:59:00;;;;;;;1.40;1.27;;;29.00;53.70;;;;;;5054723;28;20079;-75
2022/08/10 01:01:26;;;;;;;2.03;1.20;;;28.90;53.50;;;;;;5053930;28;20135;-75
2022/08/10 01:03:52;;;;;;;4.15;1.15;;;29.00;54.00;;;;;;5053011;28;20094;-75
2022/08/10 01:06:30;;;;;;;1.70;1.60;;;29.00;54.00;;;;;;5054246;28;20045;-75
2022/08/10 01:08:59;;;;;;;1.90;1.60;;;28.90;53.60;;;;;;5054464;28;20029;-75
2022/08/10 01:11:41;;;;;;;1.98;1.10;;;28.90;53.60;;;;;;5053909;28;20029;-74
2022/08/10 01:14:35;;;;;;;1.33;1.10;;;28.90;53.60;;;;;;5054153;28;20029;-75
2022/08/10 01:17:19;;;;;;;3.65;1.42;;;28.80;53.80;;;;;;5054079;28;20079;-75
2022/08/10 01:19:54;;;;;;;1.42;1.30;;;28.90;53.70;;;;;;5053934;28;20033;-75
2022/08/10 01:22:54;;;;;;;2.40;1.40;;;29.00;54.40;;;;;;5053868;28;20037;-75
2022/08/10 01:25:38;;;;;;;3.13;1.20;;;28.90;53.60;;;;;;5055384;28;20114;-75
2022/08/10 01:28:19;;;;;;;1.67;1.45;;;28.90;53.80;;;;;;5065042;28;20037;-75
2022/08/10 01:30:49;;;;;;;3.75;1.23;;;28.90;53.80;;;;;;5073772;28;20041;-75
2022/08/10 01:33:26;;;;;;;1.35;1.25;;;29.00;54.40;;;;;;5074110;28;20059;-75
2022/08/10 01:35:52;;;;;;;1.30;1.20;;;29.00;54.40;;;;;;5073718;28;20021;-74
2022/08/10 01:38:33;;;;;;;1.23;1.13;;;29.00;54.40;;;;;;5073761;28;20490;-75
2022/08/10 01:41:07;;;;;;;1.42;1.33;;;29.00;54.40;;;;;;5071862;28;20044;-75
2022/08/10 01:43:39;;;;;;;1.13;1.08;;;29.00;54.40;;;;;;5073262;28;20447;-75
2022/08/10 01:46:06;;;;;;;1.83;1.50;;;28.90;53.80;;;;;;5073145;28;20369;-75
2022/08/10 01:48:50;;;;;;;1.15;1.02;;;28.90;52.80;;;;;;5073328;28;20032;-75
2022/08/10 01:51:25;;;;;;;1.02;1.02;;;28.90;54.00;;;;;;5072243;28;20111;-75
2022/08/10 01:54:01;;;;;;;2.50;1.27;;;28.90;54.00;;;;;;5072313;28;20043;-75
2022/08/10 01:56:31;;;;;;;3.35;1.38;;;29.00;54.20;;;;;;5073471;28;20033;-75
2022/08/10 01:59:10;;;;;;;1.27;1.17;;;29.00;54.60;;;;;;5057964;28;20501;-75
2022/08/10 02:01:44;;;;;;;1.15;1.13;;;29.00;54.60;;;;;;5052945;28;20041;-74
2022/08/10 02:04:12;;;;;;;1.00;1.00;;;29.00;54.60;;;;;;5053086;28;20036;-74
2022/08/10 02:06:46;;;;;;;1.48;1.10;;;28.90;54.00;;;;;;5051955;28;20036;-75
2022/08/10 02:09:17;;;;;;;1.30;1.20;;;29.00;54.50;;;;;;5052994;28;20052;-75
2022/08/10 02:11:43;;;;;;;1.83;1.55;;;28.90;53.90;;;;;;5052902;28;20033;-74
2022/08/10 02:14:13;;;;;;;2.00;1.00;;;29.00;54.50;;;;;;5053508;28;20025;-74
2022/08/10 02:16:42;;;;;;;1.05;1.05;;;29.00;54.50;;;;;;5051777;28;20400;-75
2022/08/10 02:19:11;;;;;;;2.15;1.23;;;29.00;54.40;;;;;;5052896;28;20132;-75
2022/08/10 02:21:39;;;;;;;1.52;1.15;;;28.90;53.90;;;;;;5052858;28;20041;-75
2022/08/10 02:24:07;;;;;;;3.28;1.50;;;29.00;54.40;;;;;;5057407;28;20040;-75
2022/08/10 02:26:34;;;;;;;1.55;1.30;;;29.00;54.40;;;;;;5055143;28;20037;-75
2022/08/10 02:29:01;;;;;;;2.58;1.40;;;29.00;54.40;;;;;;5052810;28;20076;-75
2022/08/10 02:31:28;;;;;;;1.05;0.98;;;29.00;54.40;;;;;;5052750;28;20044;-75
2022/08/10 02:33:56;;;;;;;2.35;1.20;;;29.00;54.40;;;;;;5052683;28;20036;-75
2022/08/10 02:36:23;;;;;;;1.73;1.13;;;28.90;53.80;;;;;;5052384;28;20125;-75
2022/08/10 02:38:52;;;;;;;3.25;1.55;;;29.00;54.30;;;;;;5052412;28;20075;-74
2022/08/10 02:41:32;;;;;;;1.02;1.02;;;29.00;54.40;;;;;;5052543;28;20548;-76
2022/08/10 02:44:05;;;;;;;1.70;1.27;;;28.80;53.80;;;;;;5052621;28;20135;-75
2022/08/10 02:46:43;;;;;;;1.45;1.35;;;28.80;53.80;;;;;;5051359;28;20115;-74
2022/08/10 02:49:17;;;;;;;1.73;1.63;;;28.90;53.90;;;;;;5052412;28;20028;-75
2022/08/10 02:52:03;;;;;;;2.22;1.52;;;28.80;53.90;;;;;;5051996;28;20021;-74
2022/08/10 02:54:34;;;;;;;1.42;1.33;;;28.80;53.90;;;;;;5069482;28;20041;-75
2022/08/10 02:57:18;;;;;;;2.47;1.60;;;28.90;53.90;;;;;;5069280;28;20044;-75
2022/08/10 02:59:52;;;;;;;1.67;1.58;;;28.90;53.90;;;;;;5069650;28;20085;-75
2022/08/10 03:02:33;;;;;;;1.55;1.45;;;28.80;53.90;;;;;;5069443;28;20044;-75
2022/08/10 03:05:11;;;;;;;2.28;1.60;;;28.90;53.80;;;;;;5069595;28;20045;-75
2022/08/10 03:07:45;;;;;;;1.60;1.40;;;28.80;53.90;;;;;;5052841;28;20117;-75
2022/08/10 03:10:18;;;;;;;1.73;1.60;;;28.90;53.80;;;;;;5052603;28;20044;-75
2022/08/10 03:12:48;;;;;;;2.25;1.42;;;28.80;53.80;;;;;;5068851;28;20551;-75
2022/08/10 03:15:16;;;;;;;1.60;1.50;;;28.80;53.80;;;;;;5068656;28;20194;-75
2022/08/10 03:17:44;;;;;;;6.18;1.40;;;28.80;53.80;;;;;;5069088;28;20406;-75
2022/08/10 03:20:11;;;;;;;2.20;2.00;;;28.80;53.70;;;;;;5067136;28;20082;-74
2022/08/10 03:22:39;;;;;;;3.20;1.90;;;28.80;53.70;;;;;;5073313;28;20094;-75
2022/08/10 03:25:08;;;;;;;3.50;1.73;;;28.90;53.60;;;;;;5043140;28;20129;-75
2022/08/10 03:27:35;;;;;;;2.50;1.90;;;28.80;53.60;;;;;;5032010;28;20098;-75
2022/08/10 03:30:02;;;;;;;1.45;1.35;;;28.80;53.60;;;;;;5031869;28;20490;-75
2022/08/10 03:32:30;;;;;;;3.88;1.83;;;28.90;53.80;;;;;;5031820;28;20033;-75
2022/08/10 03:34:57;;;;;;;2.47;1.70;;;28.80;53.80;;;;;;5030650;28;20034;-74
2022/08/10 03:37:23;;;;;;;2.70;2.20;;;28.90;53.70;;;;;;5031887;28;20029;-74
2022/08/10 03:39:50;;;;;;;2.00;1.80;;;28.70;53.50;;;;;;5031922;28;20053;-74
2022/08/10 03:42:19;;;;;;;2.05;1.80;;;28.70;53.90;;;;;;5031164;28;20431;-75
2022/08/10 03:44:46;;;;;;;1.60;1.50;;;28.80;53.90;;;;;;5031713;28;20044;-75
2022/08/10 03:47:14;;;;;;;1.80;1.70;;;28.80;53.90;;;;;;5031818;28;20033;-75
2022/08/10 03:49:42;;;;;;;1.58;1.48;;;28.70;53.90;;;;;;5031705;28;20514;-75
2022/08/10 03:52:09;;;;;;;2.05;1.65;;;28.70;53.90;;;;;;5031460;28;20049;-80
2022/08/10 03:54:36;;;;;;;2.85;1.70;;;28.70;53.80;;;;;;5031726;28;20386;-80
2022/08/10 03:57:02;;;;;;;2.45;1.50;;;28.60;52.40;;;;;;5046600;28;20039;-81
2022/08/10 03:59:30;;;;;;;1.58;1.48;;;28.70;51.90;;;;;;5051876;28;20033;-81
2022/08/10 04:01:56;;;;;;;4.15;1.60;;;28.70;50.30;;;;;;5051186;28;20539;-81
2022/08/10 04:04:23;;;;;;;1.70;1.60;;;28.60;49.90;;;;;;5050442;28;20037;-79
2022/08/10 04:06:54;;;;;;;2.75;1.55;;;28.50;49.40;;;;;;5051717;28;20381;-78
2022/08/10 04:09:21;;;;;;;2.63;1.63;;;28.60;49.30;;;;;;5055614;28;20039;-79
2022/08/10 04:11:47;;;;;;;1.63;1.52;;;28.40;48.40;;;;;;5055576;28;20470;-84
2022/08/10 04:14:13;;;;;;;1.40;1.30;;;28.40;48.90;;;;;;5055323;28;20366;-83
2022/08/10 04:16:39;;;;;;;2.17;1.98;;;28.50;51.40;;;;;;5055292;28;20086;-81
2022/08/10 04:19:06;;;;;;;4.97;1.67;;;28.80;53.30;;;;;;5059681;28;20059;-85
2022/08/10 04:21:39;;;;;;;1.92;1.83;;;28.90;53.90;;;;;;5059588;28;20343;-84
2022/08/10 04:24:06;;;;;;;;;;;29.10;51.10;;;;;;5055164;28;20040;-79
2022/08/10 04:26:32;;;;;;;1.83;1.40;;;28.90;49.70;;;;;;5055011;28;19935;-81
2022/08/10 04:28:58;;;;;;;2.13;1.42;;;28.90;50.20;;;;;;5058365;28;20032;-84
2022/08/10 04:31:26;;;;;;;2.30;1.58;;;28.80;50.80;;;;;;5038124;28;20179;-83
2022/08/10 04:33:54;;;;;;;3.88;1.60;;;28.80;50.60;;;;;;5052540;28;20136;-83
2022/08/10 04:36:22;;;;;;;1.27;1.17;;;28.80;50.50;;;;;;5053630;28;20037;-81
2022/08/10 04:38:51;;;;;;;1.33;1.23;;;28.90;50.40;;;;;;5054825;28;20059;-83
2022/08/10 04:41:18;;;;;;;2.13;1.30;;;28.80;50.30;;;;;;5053440;28;20056;-86
2022/08/10 04:43:44;;;;;;;1.45;1.35;;;28.70;50.20;;;;;;5054916;28;20493;-84
2022/08/10 04:46:11;;;;;;;1.50;1.15;;;28.70;50.10;;;;;;5055187;28;20025;-83
2022/08/10 04:48:37;;;;;;;1.60;1.50;;;28.70;50.00;;;;;;5054007;28;20484;-80
2022/08/10 04:51:03;;;;;;;2.15;0.82;;;28.80;49.70;;;;;;5055115;28;20032;-77
2022/08/10 04:53:29;;;;;;;0.77;0.77;;;28.70;49.30;;;;;;5054634;28;20021;-80
2022/08/10 04:55:55;;;;;;;0.77;0.77;;;28.70;46.30;;;;;;5054612;28;20111;-80
2022/08/10 04:58:21;;;;;;;1.73;0.90;;;28.60;45.80;;;;;;5054876;28;20641;-79
2022/08/10 05:00:47;;;;;;;1.45;1.35;;;28.40;45.00;;;;;;5054571;28;20109;-81
2022/08/10 05:03:13;;;;;;;0.68;0.68;;;28.30;45.30;;;;;;5054573;28;20102;-78
2022/08/10 05:05:39;;;;;;;1.45;0.73;;;28.20;45.90;;;;;;5053354;28;20029;-76
2022/08/10 05:08:05;;;;;;;2.00;0.90;;;28.10;46.60;;;;;;5054351;28;20454;-78
2022/08/10 05:10:31;;;;;;;0.90;0.90;;;28.20;46.90;;;;;;5054488;28;20029;-77
2022/08/10 05:12:57;;;;;;;0.57;0.57;;;28.20;47.10;;;;;;5067917;28;20076;-78
2022/08/10 05:15:24;;;;;;;0.50;0.47;;;28.30;47.00;;;;;;5050820;28;20059;-80
2022/08/10 05:17:50;;;;;;;0.70;0.70;;;28.20;47.30;;;;;;5059644;28;20052;-86
2022/08/10 05:20:16;;;;;;;1.13;1.00;;;28.10;47.30;;;;;;5052779;28;20111;-81
2022/08/10 05:22:44;;;;;;;1.50;1.35;;;28.00;47.70;;;;;;5053264;28;20100;-82
2022/08/10 05:25:15;;;;;;;0.65;0.65;;;28.10;48.10;;;;;;5053270;28;20040;-80
2022/08/10 05:27:42;;;;;;;2.22;2.03;;;28.10;48.20;;;;;;5050619;28;20056;-84
2022/08/10 05:30:14;;;;;;;0.95;0.95;;;28.10;48.20;;;;;;5052902;28;20059;-84
2022/08/10 05:32:40;;;;;;;0.97;0.97;;;28.10;48.20;;;;;;5052922;28;20726;-79
2022/08/10 05:35:07;;;;;;;0.70;0.60;;;28.10;47.80;;;;;;5053196;28;20043;-84
2022/08/10 05:37:34;;;;;;;0.70;0.70;;;28.10;48.70;;;;;;5053143;28;20439;-76
2022/08/10 05:40:03;;;;;;;0.95;0.95;;;28.10;48.50;;;;;;5052697;28;20045;-77
2022/08/10 05:42:31;;;;;;;1.33;1.20;;;28.20;48.20;;;;;;5053260;28;20506;-80
2022/08/10 05:44:57;;;;;;;1.20;1.13;;;28.10;48.10;;;;;;5053182;28;20028;-76
2022/08/10 05:47:24;;;;;;;3.28;1.50;;;28.10;47.80;;;;;;5052558;28;20033;-80
2022/08/10 05:49:51;;;;;;;1.33;1.17;;;28.20;48.20;;;;;;5052085;28;20053;-74
2022/08/10 05:52:18;;;;;;;1.10;1.10;;;28.20;48.60;;;;;;5053593;28;20052;-76
2022/08/10 05:54:46;;;;;;;3.20;1.70;;;28.30;49.00;;;;;;5053043;28;20020;-80
2022/08/10 05:57:15;;;;;;;1.77;1.30;;;28.20;49.40;;;;;;5053419;28;20440;-79
2022/08/10 05:59:56;;;;;;;1.30;1.20;;;28.10;49.30;;;;;;5053572;28;20108;-76
2022/08/10 06:02:32;;;;;;;2.70;1.38;;;28.10;49.30;;;;;;5053379;28;20457;-76
2022/08/10 06:05:13;;;;;;;1.38;1.27;;;28.20;47.00;;;;;;5052636;28;20021;-80
2022/08/10 06:07:45;;;;;;;2.85;1.50;;;28.00;47.80;;;;;;5048667;28;20063;-72
2022/08/10 06:10:14;;;;;;;2.67;1.30;;;28.00;48.10;;;;;;5041990;28;20091;-69
2022/08/10 06:12:42;;;;;;;1.38;1.10;;;27.90;46.50;;;;;;5043278;28;20104;-75
2022/08/10 06:15:10;;;;;;;5.57;1.27;;;28.00;46.80;;;;;;5063150;28;20056;-72
2022/08/10 06:17:37;;;;;;;1.63;1.52;;;28.00;46.90;;;;;;5052500;28;20037;-74
2022/08/10 06:20:03;;;;;;;1.38;1.27;;;28.00;47.20;;;;;;5052796;28;20036;-77
2022/08/10 06:22:34;;;;;;;1.50;1.40;;;28.00;47.80;;;;;;5050784;28;20025;-77
2022/08/10 06:25:01;;;;;;;1.35;1.20;;;28.00;47.90;;;;;;5047189;28;20528;-75
2022/08/10 06:27:27;;;;;;;2.20;1.27;;;28.10;48.50;;;;;;5049628;28;20052;-75
2022/08/10 06:29:55;;;;;;;3.38;1.23;;;28.10;49.10;;;;;;5049881;28;20040;-74
2022/08/10 06:32:24;;;;;;;3.22;1.42;;;28.10;49.80;;;;;;5048463;28;20033;-75
2022/08/10 06:34:54;;;;;;;1.40;1.33;;;28.10;50.00;;;;;;5048251;28;20048;-72
2022/08/10 06:37:24;;;;;;;2.33;1.40;;;28.20;50.50;;;;;;5055933;28;20414;-73
2022/08/10 06:39:51;;;;;;;2.75;1.50;;;28.20;50.70;;;;;;5069066;28;20049;-76
2022/08/10 06:42:39;;;;;;;1.40;1.30;;;28.30;50.20;;;;;;5060788;28;20550;-73
2022/08/10 06:45:13;;;;;;;5.25;1.65;;;28.30;50.60;;;;;;5049678;28;20041;-74
2022/08/10 06:47:59;;;;;;;1.33;1.23;;;28.20;51.10;;;;;;5052661;28;20025;-75
2022/08/10 06:50:28;;;;;;;1.10;1.10;;;28.20;51.40;;;;;;5065009;28;20037;-70
2022/08/10 06:52:55;;;;;;;1.27;1.17;;;28.10;49.90;;;;;;5069687;28;20036;-69
2022/08/10 06:55:23;;;;;;;1.35;1.25;;;28.10;49.10;;;;;;5061890;28;20052;-72
2022/08/10 06:57:52;;;;;;;1.10;1.10;;;28.10;48.50;;;;;;5064608;28;20025;-73
2022/08/10 07:00:19;;;;;;;2.00;1.23;;;28.00;48.40;;;;;;5059894;28;20492;-73
2022/08/10 07:02:56;;;;;;;1.33;1.15;;;28.10;49.00;;;;;;5056953;28;20044;-73
2022/08/10 07:05:25;;;;;;;2.95;1.33;;;28.10;49.10;;;;;;5050780;28;20108;-74
2022/08/10 07:07:55;;;;;;;1.95;1.50;;;28.20;49.00;;;;;;5051985;28;20394;-77
2022/08/10 07:10:24;;;;;;;1.10;0.93;;;28.10;49.00;;;;;;5043412;28;20088;-71
2022/08/10 07:12:55;;;;;;;1.35;1.25;;;28.00;48.90;;;;;;5059905;28;20465;-75
2022/08/10 07:15:22;;;;;;;4.00;1.33;;;28.10;48.90;;;;;;5060420;28;20038;-72
2022/08/10 07:17:51;;;;;;;1.50;1.40;;;28.10;49.00;;;;;;5051702;28;20473;-72
2022/08/10 07:20:19;;;;;;;1.60;1.25;;;28.20;49.00;;;;;;5051729;28;20469;-72
2022/08/10 07:22:51;;;;;;;3.78;1.58;;;28.20;49.00;;;;;;5051661;28;20025;-73
2022/08/10 07:25:24;;;;;;;5.18;1.55;;;28.10;48.90;;;;;;5049436;28;20040;-73
2022/08/10 07:27:51;;;;;;;1.00;1.00;;;28.20;49.10;;;;;;5055433;28;20033;-73
2022/08/10 07:30:18;;;;;;;1.73;1.20;;;28.20;49.00;;;;;;5064270;28;20032;-75
2022/08/10 07:32:48;;;;;;;0.85;0.85;;;28.20;48.90;;;;;;5055728;28;20021;-73
2022/08/10 07:35:15;;;;;;;3.92;1.23;;;28.00;48.80;;;;;;5057422;28;20033;-73
2022/08/10 07:37:48;;;;;;;2.15;0.82;;;28.00;48.80;;;;;;5056987;28;20086;-73
2022/08/10 07:40:19;;;;;;;0.80;0.80;;;27.90;48.40;;;;;;5056848;28;20086;-74
2022/08/10 07:42:54;;;;;;;1.50;1.35;;;27.90;48.50;;;;;;5059240;28;20036;-73
2022/08/10 07:45:24;;;;;;;3.42;1.00;;;27.90;48.30;;;;;;5059636;28;20547;-73
2022/08/10 07:47:57;;;;;;;1.58;1.17;;;27.80;48.70;;;;;;5057254;28;20068;-72
2022/08/10 07:50:26;;;;;;;1.10;1.00;;;28.00;49.30;;;;;;5060042;28;20036;-72
2022/08/10 07:52:56;;;;;;;1.23;1.20;;;28.00;49.30;;;;;;5031025;28;20215;-74
2022/08/10 07:55:23;;;;;;;4.05;1.50;;;28.00;49.30;;;;;;5031160;28;20048;-71
2022/08/10 07:57:53;;;;;;;1.58;1.38;;;28.00;49.20;;;;;;5041844;28;20044;-74
2022/08/10 08:00:20;;;;;;;2.65;1.10;;;27.90;48.60;;;;;;5051506;28;20057;-73
2022/08/10 08:02:52;;;;;;;0.30;0.30;;;28.00;49.20;;;;;;5057250;28;20028;-74
2022/08/10 08:05:19;;;;;;;;;;;28.00;49.20;;;;;;5067736;28;20024;-74
2022/08/10 08:07:46;;;;;;;0.63;0.63;;;28.00;49.00;;;;;;5071847;28;19991;-74
2022/08/10 08:10:15;;;;;;;0.98;0.98;;;28.00;49.10;;;;;;5058803;28;20090;-74
2022/08/10 08:12:43;;;;;;;2.25;1.60;;;28.00;49.20;;;;;;5071567;28;20052;-78
2022/08/10 08:15:12;;;;;;;5.18;1.38;;;27.90;48.60;;;;;;5071218;28;20040;-76
2022/08/10 08:17:39;;;;;;;1.98;1.27;;;28.00;49.20;;;;;;5067538;28;20029;-75
2022/08/10 08:20:08;;;;;;;1.50;1.38;;;28.00;49.30;;;;;;5055759;28;20029;-74
2022/08/10 08:22:35;;;;;;;0.82;0.82;;;27.90;48.80;;;;;;5051633;28;20174;-76
2022/08/10 08:25:03;;;;;;;2.75;1.20;;;28.00;49.40;;;;;;5051323;28;20466;-74
2022/08/10 08:27:30;;;;;;;1.17;1.05;;;28.00;49.20;;;;;;5051391;28;20546;-75
2022/08/10 08:29:56;;;;;;;1.25;1.15;;;27.90;48.60;;;;;;5051314;28;20516;-74
2022/08/10 08:32:25;;;;;;;1.63;1.52;;;27.80;48.70;;;;;;5051387;28;20047;-78
2022/08/10 08:35:00;;;;;;;1.63;1.50;;;27.80;49.70;;;;;;5049906;28;20454;-68
2022/08/10 08:37:29;;;;;;;1.70;1.23;;;27.90;49.70;;;;;;5051292;28;20094;-72
2022/08/10 08:39:56;;;;;;;1.95;1.70;;;27.80;49.80;;;;;;5051131;28;20053;-72
2022/08/10 08:42:43;;;;;;;1.52;0.90;;;27.80;49.80;;;;;;5051940;28;20044;-75
2022/08/10 08:45:19;;;;;;;0.32;0.32;;;27.90;49.90;;;;;;5051548;28;20037;-75
2022/08/10 08:47:51;;;;;;;0.52;0.52;;;28.00;54.70;;;;;;5051737;28;20041;-76
2022/08/10 08:50:38;;;;;;;;;;;28.00;52.30;;;;;;5050523;28;20410;-75
2022/08/10 08:53:19;;;;;;;1.52;1.42;;;28.20;50.80;;;;;;5051319;28;20293;-76
2022/08/10 08:56:42;;;;;;;0.80;0.80;;;28.10;50.70;;;;;;5052980;28;20033;-74
2022/08/10 08:59:35;;;;;;;1.13;1.13;;;28.10;52.60;;;;;;5012752;28;20034;-74
2022/08/10 09:02:19;;;;;;;;;;;28.10;51.80;;;;;;5013249;28;20041;-75
2022/08/10 09:04:57;;;;;;;0.77;0.77;;;28.20;51.60;;;;;;5011864;28;19913;-75
2022/08/10 09:07:38;;;;;;;0.30;0.30;;;28.20;51.40;;;;;;5011520;28;20633;-73
2022/08/10 09:10:39;;;;;;;0.30;0.30;;;28.20;51.00;;;;;;5012348;28;20061;-75
2022/08/10 09:13:07;;;;;;;0.40;0.40;;;28.20;50.70;;;;;;4954121;29;20059;-75
2022/08/10 09:15:39;;;;;;;1.27;1.17;;;28.10;50.90;;;;;;4954102;29;20058;-74
2022/08/10 09:18:04;;;;;;;0.40;0.40;;;28.20;50.60;;;;;;4954025;29;20039;-76
2022/08/10 09:21:08;;;;;;;0.60;0.60;;;28.20;51.20;;;;;;4943382;29;20094;-73
2022/08/10 09:23:46;;;;;;;1.20;1.10;;;28.10;50.90;;;;;;4923012;29;20062;-73
2022/08/10 09:26:40;;;;;;;0.30;0.30;;;28.40;50.50;;;;;;4897063;29;20635;-75
2022/08/10 09:29:10;;;;;;;0.85;0.85;;;28.30;50.50;;;;;;4862723;29;20049;-74
2022/08/10 09:31:46;;;;;;;1.42;1.30;;;28.20;50.20;;;;;;4878294;29;20044;-76
2022/08/10 09:34:38;;;;;;;1.35;1.25;;;28.20;51.10;;;;;;4877953;29;20041;-77
2022/08/10 09:37:23;;;;;;;1.50;1.40;;;28.10;50.60;;;;;;4877919;29;20052;-74
2022/08/10 09:40:01;;;;;;;3.03;1.17;;;28.10;50.70;;;;;;4877518;29;20456;-73
2022/08/10 09:42:38;;;;;;;0.60;0.60;;;27.90;50.60;;;;;;4877769;29;20080;-73
2022/08/10 09:45:15;;;;;;;0.40;0.40;;;28.00;51.10;;;;;;4878006;29;20045;-76
2022/08/10 09:47:56;;;;;;;7.72;2.30;;;28.10;52.10;;;;;;4877797;29;20085;-76
2022/08/10 09:50:55;;;;;;;1.77;1.30;;;28.00;54.60;;;;;;4920994;29;20048;-77
2022/08/10 09:53:48;;;;;;;2.88;2.28;;;28.50;59.20;;;;;;4918513;29;20050;-79
2022/08/10 09:56:27;;;;;;;3.33;1.38;;;28.60;55.00;;;;;;5005459;28;20125;-78
2022/08/10 09:59:18;;;;;;;1.60;1.50;;;28.50;53.10;;;;;;5014144;28;20399;-78
2022/08/10 10:01:56;;;;;;;0.82;0.82;;;28.50;51.80;;;;;;4992100;28;20403;-78
2022/08/10 10:04:54;;;;;;;1.45;0.88;;;28.40;52.00;;;;;;5003742;28;20121;-76
2022/08/10 10:07:25;;;;;;;3.30;1.65;;;28.40;54.70;;;;;;5053684;28;20041;-75
2022/08/10 10:10:07;;;;;;;5.30;1.77;;;28.40;55.80;;;;;;5053546;28;20025;-75
2022/08/10 10:12:42;;;;;;;2.73;1.80;;;28.50;53.00;;;;;;5053471;28;20033;-76
2022/08/10 10:15:33;;;;;;;2.83;1.40;;;28.50;50.80;;;;;;5053765;28;20278;-74
2022/08/10 10:18:13;;;;;;;1.63;1.52;;;28.40;50.30;;;;;;5032280;28;20041;-75
2022/08/10 10:21:06;;;;;;;1.35;1.25;;;28.30;50.30;;;;;;5033794;28;20036;-75
2022/08/10 10:24:06;;;;;;;2.53;1.70;;;28.40;50.00;;;;;;5050408;28;20116;-74
2022/08/10 10:26:55;;;;;;;1.77;1.67;;;28.40;50.00;;;;;;5053568;28;20033;-74
2022/08/10 10:29:36;;;;;;;1.50;1.40;;;28.30;49.90;;;;;;5055213;28;20498;-75
2022/08/10 10:32:21;;;;;;;1.30;1.15;;;28.40;49.90;;;;;;5064631;28;20397;-76
2022/08/10 10:35:10;;;;;;;0.70;0.70;;;28.40;50.10;;;;;;5048423;28;20032;-74
2022/08/10 10:37:36;;;;;;;0.30;0.30;;;28.30;51.40;;;;;;5052201;28;20080;-76
2022/08/10 10:40:04;;;;;;;2.20;0.77;;;28.40;50.20;;;;;;5051989;28;20154;-76
2022/08/10 10:42:45;;;;;;;1.15;1.05;;;28.30;49.80;;;;;;5050948;28;20033;-75
2022/08/10 10:45:23;;;;;;;1.98;1.17;;;28.40;49.60;;;;;;5053014;28;20067;-76
2022/08/10 10:48:36;;;;;;;0.90;0.85;;;28.30;49.50;;;;;;5053174;28;20040;-74
2022/08/10 10:51:17;;;;;;;1.83;1.05;;;28.50;49.50;;;;;;5010763;28;20163;-75
2022/08/10 10:54:04;;;;;;;2.75;1.10;;;28.30;49.40;;;;;;5010664;28;20455;-75
2022/08/10 10:56:55;;;;;;;2.00;1.17;;;28.30;49.40;;;;;;5010709;28;20467;-76
2022/08/10 10:59:56;;;;;;;1.58;1.30;;;28.30;49.50;;;;;;5010512;28;20045;-76
2022/08/10 11:02:59;;;;;;;1.50;1.40;;;28.30;49.40;;;;;;4952055;28;20090;-75
2022/08/10 11:06:03;;;;;;;;;;;28.20;49.20;;;;;;4933141;29;20154;-74
2022/08/10 11:08:41;;;;;;;3.95;3.00;;;28.30;49.10;;;;;;4913643;29;20269;-73
2022/08/10 11:11:18;;;;;;;7.15;4.25;;;28.20;49.00;;;;;;4913950;29;20502;-73
2022/08/10 11:14:21;;;;;;;3.45;2.50;;;28.20;49.10;;;;;;4913447;29;20080;-73
2022/08/10 11:16:50;;;;;;;3.53;2.40;;;28.20;49.50;;;;;;4912909;29;20425;-72
2022/08/10 11:19:42;;;;;;;3.83;2.70;;;28.10;52.10;;;;;;4913378;29;20498;-72
2022/08/10 11:22:21;;;;;;;3.40;2.45;;;28.10;51.60;;;;;;4852478;29;20054;-75
2022/08/10 11:25:00;;;;;;;3.90;2.35;;;28.00;50.80;;;;;;4848044;29;20161;-75
2022/08/10 11:27:51;;;;;;;2.58;2.10;;;28.10;50.50;;;;;;4857239;29;20105;-77
2022/08/10 11:30:28;;;;;;;8.75;3.38;;;28.10;50.10;;;;;;4857400;29;20045;-76
2022/08/10 11:33:26;;;;;;;6.60;2.60;;;28.00;50.00;;;;;;4856994;29;20057;-74
2022/08/10 11:36:07;;;;;;;6.07;2.63;;;27.90;49.50;;;;;;4891878;29;20048;-75
2022/08/10 11:38:59;;;;;;;6.05;1.70;;;27.90;49.50;;;;;;4894954;29;20127;-79
2022/08/10 11:42:01;;;;;;;3.38;1.85;;;27.90;49.40;;;;;;4923669;29;20484;-76
2022/08/10 11:45:02;;;;;;;3.95;2.35;;;27.90;49.50;;;;;;4930705;29;20083;-75
2022/08/10 11:47:45;;;;;;;4.22;1.50;;;27.80;49.60;;;;;;4920577;29;20132;-78
2022/08/10 11:50:25;;;;;;;1.95;1.75;;;27.80;49.80;;;;;;4912945;29;20093;-73
2022/08/10 11:53:14;;;;;;;2.17;1.98;;;27.90;49.80;;;;;;4926019;29;20048;-74
2022/08/10 11:55:48;;;;;;;1.63;1.40;;;27.90;50.00;;;;;;4931782;29;20050;-75
2022/08/10 12:01:07;;;;;;;1.55;1.25;;;28.00;50.50;;;;;;4966332;28;20763;-74
2022/08/10 12:03:37;;;;;;;2.83;1.98;;;28.00;50.40;;;;;;4970539;28;20054;-72
2022/08/10 12:06:12;;;;;;;2.25;1.88;;;27.90;49.70;;;;;;4970410;28;20031;-75
2022/08/10 12:08:41;;;;;;;2.47;1.88;;;28.00;50.20;;;;;;4967236;28;20135;-74
2022/08/10 12:11:10;;;;;;;2.85;1.85;;;28.10;50.10;;;;;;4956062;28;20582;-71
2022/08/10 12:14:03;;;;;;;1.80;1.70;;;28.00;50.20;;;;;;4984671;28;20654;-72
2022/08/10 12:16:33;;;;;;;3.20;1.90;;;28.10;50.20;;;;;;5001892;28;20061;-73
2022/08/10 12:19:12;;;;;;;2.35;1.45;;;28.00;50.30;;;;;;5007161;28;20088;-73
2022/08/10 12:22:03;;;;;;;3.42;2.05;;;28.10;50.30;;;;;;5045720;28;20446;-73
2022/08/10 12:24:41;;;;;;;2.55;1.77;;;28.10;50.20;;;;;;5051175;28;20061;-73
2022/08/10 12:27:12;;;;;;;1.65;1.55;;;28.20;50.10;;;;;;5051187;28;20052;-72
2022/08/10 12:29:46;;;;;;;3.83;1.90;;;28.10;50.00;;;;;;5051444;28;20120;-72
2022/08/10 12:32:21;;;;;;;1.52;1.40;;;28.20;50.00;;;;;;5055054;28;20398;-72
2022/08/10 12:34:53;;;;;;;1.60;1.50;;;28.10;50.00;;;;;;5054712;28;20103;-72
2022/08/10 12:37:37;;;;;;;3.35;1.30;;;28.00;49.90;;;;;;5054719;28;20466;-72
2022/08/10 12:40:17;;;;;;;1.88;1.58;;;28.10;50.00;;;;;;5054661;28;20118;-72
2022/08/10 12:42:56;;;;;;;2.40;1.55;;;28.30;49.90;;;;;;5054837;28;20049;-72
2022/08/10 12:45:58;;;;;;;2.25;1.55;;;28.20;50.10;;;;;;5054776;28;20060;-73
2022/08/10 12:48:33;;;;;;;5.28;1.55;;;28.20;50.10;;;;;;5054590;28;20419;-72
2022/08/10 12:51:26;;;;;;;2.65;1.45;;;28.30;50.10;;;;;;5054961;28;20036;-72
2022/08/10 12:53:56;;;;;;;;;;;28.10;50.10;;;;;;5055011;28;20428;-72
2022/08/10 12:56:29;;;;;;;1.88;1.60;;;28.20;50.10;;;;;;5055609;28;19920;-72
2022/08/10 12:58:56;;;;;;;2.50;1.90;;;28.20;50.10;;;;;;5063301;28;20419;-72
2022/08/10 13:01:35;;;;;;;1.88;1.65;;;28.10;50.10;;;;;;5054340;28;20036;-72
2022/08/10 13:04:06;;;;;;;2.85;1.60;;;28.30;50.10;;;;;;5054407;28;20119;-73
2022/08/10 13:06:35;;;;;;;1.98;1.73;;;28.20;50.00;;;;;;5053064;28;20094;-72
2022/08/10 13:09:07;;;;;;;1.52;1.40;;;28.20;50.00;;;;;;5054083;28;20036;-72
2022/08/10 13:11:37;;;;;;;1.77;1.67;;;28.20;50.00;;;;;;5054302;28;20401;-72
2022/08/10 13:14:12;;;;;;;1.65;1.55;;;28.20;50.00;;;;;;5054380;28;20041;-72
2022/08/10 13:16:40;;;;;;;4.43;1.65;;;28.20;50.10;;;;;;5054091;28;20036;-73
2022/08/10 13:19:07;;;;;;;1.50;1.40;;;28.10;50.10;;;;;;5053902;28;20037;-72
2022/08/10 13:21:37;;;;;;;1.95;1.40;;;28.30;50.10;;;;;;5053737;28;20111;-73
2022/08/10 13:24:09;;;;;;;3.60;1.40;;;28.10;50.20;;;;;;5054242;28;20112;-72